Time;durP1;ratioP1;P1;durP2;ratioP2;P2;SDS_P1;SDS_P2;PMS_P1;PMS_P2;Temp;Humidity;BMP_temperature;BMP_pressure;BME280_temperature;BME280_humidity;BME280_pressure;Samples;Min_cycle;Max_cycle;Signal;HPM_P1;HPM_P2
2022/11/24 00:01:18;;;;;;;11.87;2.70;;;9.20;99.90;;;;;;5061794;28;20317;-92
2022/11/24 00:03:55;;;;;;;14.38;3.92;;;9.20;99.90;;;;;;5061009;28;20425;-92
2022/11/24 00:06:23;;;;;;;15.07;3.67;;;9.30;99.90;;;;;;5056864;28;20663;-93
2022/11/24 00:08:53;;;;;;;9.77;2.67;;;9.30;99.90;;;;;;5055848;28;20209;-92
2022/11/24 00:11:21;;;;;;;9.97;2.93;;;9.30;99.90;;;;;;5052884;28;20218;-92
2022/11/24 00:13:48;;;;;;;11.53;3.10;;;9.30;99.90;;;;;;5057282;28;20207;-92
2022/11/24 00:16:17;;;;;;;12.67;3.00;;;9.30;99.90;;;;;;5049176;28;20671;-93
2022/11/24 00:18:46;;;;;;;10.70;2.60;;;9.40;99.90;;;;;;5054213;28;20217;-92
2022/11/24 00:21:20;;;;;;;18.00;4.10;;;9.40;99.90;;;;;;5060557;28;20785;-93
2022/11/24 00:23:49;;;;;;;12.63;3.30;;;9.30;99.90;;;;;;5062227;28;20202;-91
2022/11/24 00:26:18;;;;;;;17.63;3.07;;;9.30;99.90;;;;;;5060716;28;20207;-93
2022/11/24 00:28:48;;;;;;;15.10;3.20;;;9.40;99.90;;;;;;5060229;28;20218;-93
2022/11/24 00:31:18;;;;;;;18.40;3.93;;;9.30;99.90;;;;;;5061293;28;20198;-91
2022/11/24 00:33:50;;;;;;;14.60;2.83;;;9.40;99.90;;;;;;5060010;28;20237;-92
2022/11/24 00:36:20;;;;;;;15.27;3.33;;;9.50;99.90;;;;;;5067086;28;20231;-92
2022/11/24 00:38:52;;;;;;;16.53;4.10;;;9.50;99.90;;;;;;5066291;28;20210;-92
2022/11/24 00:41:23;;;;;;;17.47;3.43;;;9.50;99.90;;;;;;5058742;28;20242;-91
2022/11/24 00:43:51;;;;;;;13.07;3.60;;;9.50;99.90;;;;;;5059816;28;20277;-91
2022/11/24 00:46:19;;;;;;;22.73;4.03;;;9.60;99.90;;;;;;5059968;28;20684;-92
2022/11/24 00:48:49;;;;;;;14.77;3.73;;;9.70;99.90;;;;;;5058185;28;20669;-91
2022/11/24 00:51:18;;;;;;;15.93;3.63;;;9.50;99.90;;;;;;5058234;28;20225;-94
2022/11/24 00:53:48;;;;;;;18.63;4.17;;;9.50;99.90;;;;;;5057534;28;20231;-91
2022/11/24 00:56:15;;;;;;;19.30;3.67;;;9.50;99.90;;;;;;5062074;28;20218;-93
2022/11/24 00:58:44;;;;;;;20.33;5.00;;;9.60;99.90;;;;;;5059827;28;20195;-92
2022/11/24 01:01:13;;;;;;;19.43;3.70;;;9.60;99.90;;;;;;5057413;28;20236;-91
2022/11/24 01:03:41;;;;;;;17.13;3.70;;;9.50;99.90;;;;;;5056390;28;20684;-92
2022/11/24 01:06:16;;;;;;;16.93;4.63;;;9.50;99.90;;;;;;5058252;28;20600;-91
2022/11/24 01:08:49;;;;;;;19.10;3.60;;;9.50;99.90;;;;;;5056653;28;20214;-91
2022/11/24 01:11:19;;;;;;;15.93;3.40;;;9.50;99.90;;;;;;5056691;28;20225;-92
2022/11/24 01:13:49;;;;;;;23.10;4.63;;;9.60;99.90;;;;;;5056090;28;20498;-90
2022/11/24 01:16:20;;;;;;;10.10;3.27;;;9.60;99.90;;;;;;5055279;28;20216;-90
2022/11/24 01:18:50;;;;;;;12.83;3.50;;;9.60;99.90;;;;;;5056259;28;20214;-91
2022/11/24 01:21:18;;;;;;;22.25;4.65;;;9.50;99.90;;;;;;5055578;28;20442;-91
2022/11/24 01:23:45;;;;;;;22.33;5.00;;;9.70;99.90;;;;;;5057717;28;20197;-92
2022/11/24 01:26:15;;;;;;;15.77;3.53;;;9.70;99.90;;;;;;5056104;28;20206;-92
2022/11/24 01:28:43;;;;;;;20.20;4.50;;;9.70;99.90;;;;;;5057960;28;20217;-93
2022/11/24 01:31:13;;;;;;;18.40;4.83;;;9.70;99.90;;;;;;5056947;28;20199;-93
2022/11/24 01:33:40;;;;;;;16.20;3.70;;;9.70;99.90;;;;;;5058101;28;20220;-91
2022/11/24 01:36:08;;;;;;;15.90;4.20;;;9.70;99.90;;;;;;5056541;28;20636;-90
2022/11/24 01:38:37;;;;;;;18.33;4.03;;;9.70;99.90;;;;;;5055142;28;20191;-91
2022/11/24 01:41:06;;;;;;;24.00;4.60;;;9.70;99.90;;;;;;5055314;28;20226;-91
2022/11/24 01:43:36;;;;;;;22.93;4.80;;;9.70;99.90;;;;;;5054816;28;20229;-92
2022/11/24 01:46:12;;;;;;;19.37;3.70;;;9.70;99.90;;;;;;5055015;28;20215;-91
2022/11/24 01:48:50;;;;;;;19.60;4.27;;;9.80;99.90;;;;;;5054697;28;20230;-91
2022/11/24 01:51:26;;;;;;;22.10;3.77;;;9.80;99.90;;;;;;5054906;28;20281;-91
2022/11/24 01:53:58;;;;;;;16.63;4.00;;;9.80;99.90;;;;;;5055273;28;20226;-91
2022/11/24 01:56:26;;;;;;;19.73;3.90;;;9.80;99.90;;;;;;5056636;28;20289;-92
2022/11/24 01:58:56;;;;;;;20.03;4.10;;;9.80;99.90;;;;;;5059982;28;20214;-91
2022/11/24 02:01:29;;;;;;;19.37;4.20;;;9.80;99.90;;;;;;5062335;28;20214;-91
2022/11/24 02:04:01;;;;;;;20.00;3.87;;;9.90;99.90;;;;;;5060168;28;20206;-92
2022/11/24 02:06:33;;;;;;;22.63;4.13;;;9.90;99.90;;;;;;5059656;28;20214;-92
2022/11/24 02:09:04;;;;;;;19.27;4.00;;;10.00;99.90;;;;;;5058449;28;20221;-91
2022/11/24 02:11:35;;;;;;;18.07;4.47;;;10.00;99.90;;;;;;5057512;28;20776;-92
2022/11/24 02:14:05;;;;;;;17.60;3.90;;;10.00;99.90;;;;;;5057296;28;20212;-92
2022/11/24 02:16:34;;;;;;;18.80;3.70;;;10.00;99.90;;;;;;5059975;28;20206;-91
2022/11/24 02:19:16;;;;;;;19.47;3.30;;;10.00;99.90;;;;;;5057668;28;20203;-91
2022/11/24 02:21:45;;;;;;;9.47;2.87;;;10.00;99.90;;;;;;5062162;28;20218;-91
2022/11/24 02:24:17;;;;;;;7.27;1.93;;;9.90;99.90;;;;;;5060789;28;20205;-90
2022/11/24 02:26:50;;;;;;;6.37;2.07;;;9.70;99.90;;;;;;5057878;28;20210;-91
2022/11/24 02:29:20;;;;;;;10.93;1.90;;;9.50;99.90;;;;;;5057554;28;20214;-89
2022/11/24 02:31:52;;;;;;;7.97;1.60;;;9.30;99.90;;;;;;5059668;28;20202;-89
2022/11/24 02:34:19;;;;;;;5.90;1.43;;;9.10;99.90;;;;;;5055744;28;20217;-89
2022/11/24 02:36:46;;;;;;;6.43;2.00;;;8.90;99.90;;;;;;5049025;28;20219;-89
2022/11/24 02:39:15;;;;;;;8.30;1.80;;;8.80;99.90;;;;;;5045693;28;20203;-91
2022/11/24 02:41:46;;;;;;;4.23;1.70;;;8.70;99.90;;;;;;5048535;28;20248;-90
2022/11/24 02:44:17;;;;;;;7.37;1.63;;;8.70;99.90;;;;;;5040912;28;20209;-91
2022/11/24 02:46:47;;;;;;;6.20;1.70;;;8.60;99.90;;;;;;5056707;28;20206;-88
2022/11/24 02:49:15;;;;;;;7.17;2.20;;;8.60;99.90;;;;;;5058779;28;20591;-91
2022/11/24 02:51:44;;;;;;;9.10;1.97;;;8.70;99.90;;;;;;5053819;28;20217;-91
2022/11/24 02:54:12;;;;;;;3.80;1.10;;;8.60;99.90;;;;;;5054690;28;20235;-91
2022/11/24 02:56:40;;;;;;;3.60;1.13;;;8.70;99.90;;;;;;5054634;28;20210;-91
2022/11/24 02:59:07;;;;;;;2.33;1.00;;;8.60;99.90;;;;;;5055404;28;20217;-91
2022/11/24 03:01:35;;;;;;;2.80;1.03;;;8.60;99.90;;;;;;5057134;28;20224;-90
2022/11/24 03:04:03;;;;;;;6.63;1.30;;;8.50;99.90;;;;;;5057592;28;20203;-91
2022/11/24 03:06:32;;;;;;;3.70;1.00;;;8.50;99.90;;;;;;5058076;28;20202;-90
2022/11/24 03:09:00;;;;;;;3.53;1.30;;;8.50;99.90;;;;;;5057110;28;20658;-91
2022/11/24 03:11:28;;;;;;;5.97;1.50;;;8.50;99.90;;;;;;5060315;28;20205;-91
2022/11/24 03:13:56;;;;;;;5.00;1.40;;;8.50;99.90;;;;;;5062169;28;20595;-91
2022/11/24 03:16:25;;;;;;;2.70;1.50;;;8.50;99.90;;;;;;5065508;28;20775;-91
2022/11/24 03:18:53;;;;;;;4.40;1.50;;;8.50;99.90;;;;;;5064869;28;20211;-90
2022/11/24 03:21:20;;;;;;;6.67;1.63;;;8.60;99.90;;;;;;5065976;28;20222;-88
2022/11/24 03:23:47;;;;;;;6.10;1.70;;;8.70;99.90;;;;;;5064650;28;20673;-89
2022/11/24 03:26:16;;;;;;;8.00;2.07;;;8.70;99.90;;;;;;5064546;28;20213;-91
2022/11/24 03:28:43;;;;;;;8.70;1.80;;;8.60;99.90;;;;;;5064253;28;20203;-90
2022/11/24 03:31:11;;;;;;;8.27;1.93;;;8.60;99.90;;;;;;5063081;28;20199;-91
2022/11/24 03:33:39;;;;;;;5.30;1.83;;;8.60;99.90;;;;;;5062835;28;20209;-90
2022/11/24 03:36:08;;;;;;;9.03;2.50;;;8.50;99.90;;;;;;5057933;28;20236;-90
2022/11/24 03:38:35;;;;;;;7.60;1.63;;;8.40;99.90;;;;;;5064090;28;20206;-90
2022/11/24 03:41:02;;;;;;;10.63;2.07;;;8.40;99.90;;;;;;5059895;28;20222;-90
2022/11/24 03:43:29;;;;;;;5.00;1.60;;;8.30;99.90;;;;;;5057705;28;20202;-91
2022/11/24 03:45:57;;;;;;;6.43;1.40;;;8.40;99.90;;;;;;5059241;28;20214;-91
2022/11/24 03:48:25;;;;;;;7.93;2.10;;;8.40;99.90;;;;;;5060765;28;20217;-90
2022/11/24 03:50:58;;;;;;;6.53;1.47;;;8.30;99.90;;;;;;5057053;28;20240;-91
2022/11/24 03:53:28;;;;;;;6.60;2.00;;;8.30;99.90;;;;;;5056047;28;20230;-91
2022/11/24 03:56:01;;;;;;;5.73;1.50;;;8.50;99.90;;;;;;5056234;28;20642;-89
2022/11/24 03:58:30;;;;;;;4.20;1.73;;;8.50;99.90;;;;;;5056308;28;20637;-90
2022/11/24 04:00:58;;;;;;;6.57;1.37;;;8.50;99.90;;;;;;5056950;28;20693;-92
2022/11/24 04:03:26;;;;;;;6.40;1.50;;;8.60;99.90;;;;;;5058309;28;20226;-91
2022/11/24 04:05:53;;;;;;;6.30;1.60;;;8.70;99.90;;;;;;5058436;28;20199;-89
2022/11/24 04:08:21;;;;;;;1.40;0.90;;;8.60;99.90;;;;;;5057868;28;20669;-91
2022/11/24 04:10:53;;;;;;;4.37;0.90;;;8.60;99.90;;;;;;5057178;28;20199;-90
2022/11/24 04:13:24;;;;;;;5.77;1.40;;;8.60;99.90;;;;;;5056666;28;20206;-88
2022/11/24 04:15:52;;;;;;;2.73;1.40;;;8.70;99.90;;;;;;5056485;28;20214;-90
2022/11/24 04:18:19;;;;;;;4.70;1.47;;;8.70;99.90;;;;;;5056081;28;20206;-90
2022/11/24 04:20:48;;;;;;;1.87;0.90;;;8.70;99.90;;;;;;5056530;28;20819;-91
2022/11/24 04:23:16;;;;;;;3.60;1.30;;;8.70;99.90;;;;;;5056930;28;20202;-88
2022/11/24 04:25:46;;;;;;;4.10;1.33;;;8.70;99.90;;;;;;5056030;28;20554;-92
2022/11/24 04:28:15;;;;;;;6.22;2.10;;;8.60;99.90;;;;;;5055976;28;20429;-93
2022/11/24 04:30:44;;;;;;;5.77;1.47;;;8.80;99.90;;;;;;5056655;28;20214;-90
2022/11/24 04:33:11;;;;;;;3.67;1.50;;;8.70;99.90;;;;;;5056730;28;20214;-90
2022/11/24 04:35:38;;;;;;;5.90;1.27;;;8.70;99.90;;;;;;5056397;28;20214;-92
2022/11/24 04:38:05;;;;;;;4.33;1.53;;;8.70;99.90;;;;;;5056569;28;20211;-92
2022/11/24 04:40:33;;;;;;;2.90;1.60;;;8.60;99.90;;;;;;5057929;28;20222;-91
2022/11/24 04:43:01;;;;;;;5.10;1.60;;;8.60;99.90;;;;;;5057199;28;20666;-90
2022/11/24 04:45:31;;;;;;;7.57;1.50;;;8.70;99.90;;;;;;5056620;28;20201;-90
2022/11/24 04:47:58;;;;;;;2.93;1.63;;;8.60;99.90;;;;;;5055890;28;20217;-89
2022/11/24 04:50:24;;;;;;;3.33;0.83;;;8.70;99.90;;;;;;5056556;28;20209;-93
2022/11/24 04:52:51;;;;;;;3.03;1.40;;;8.50;99.90;;;;;;5055871;28;20238;-92
2022/11/24 04:55:18;;;;;;;4.90;1.75;;;8.50;99.90;;;;;;5056188;28;20425;-90
2022/11/24 04:57:46;;;;;;;6.87;1.80;;;8.50;99.90;;;;;;5057596;28;20218;-91
2022/11/24 05:00:14;;;;;;;4.03;1.53;;;8.60;99.90;;;;;;5057561;28;20217;-91
2022/11/24 05:02:44;;;;;;;3.43;1.23;;;8.50;99.90;;;;;;5057310;28;20711;-89
2022/11/24 05:05:11;;;;;;;5.00;1.30;;;8.50;99.90;;;;;;5057566;28;20207;-91
2022/11/24 05:07:44;;;;;;;3.90;1.57;;;8.50;99.90;;;;;;5056718;28;20285;-92
2022/11/24 05:12:58;;;;;;;5.60;1.80;;;8.50;99.90;;;;;;5056925;28;20204;-92
2022/11/24 05:15:25;;;;;;;6.30;1.67;;;8.50;99.90;;;;;;5059974;28;20203;-91
2022/11/24 05:17:55;;;;;;;8.10;2.00;;;8.50;99.90;;;;;;5056941;28;20252;-90
2022/11/24 05:20:24;;;;;;;5.27;1.70;;;8.50;99.90;;;;;;5059559;28;20214;-90
2022/11/24 05:22:52;;;;;;;5.07;1.83;;;8.60;99.90;;;;;;5055522;28;20199;-91
2022/11/24 05:25:22;;;;;;;8.13;1.77;;;8.50;99.90;;;;;;5069656;28;20212;-91
2022/11/24 05:27:50;;;;;;;7.23;2.00;;;8.60;99.90;;;;;;5058569;28;20206;-90
2022/11/24 05:30:17;;;;;;;8.63;1.60;;;8.50;99.90;;;;;;5044093;28;20217;-90
2022/11/24 05:32:45;;;;;;;6.43;2.10;;;8.50;99.90;;;;;;5058136;28;20218;-89
2022/11/24 05:35:14;;;;;;;6.87;2.77;;;8.50;99.90;;;;;;5054666;28;20214;-91
2022/11/24 05:37:42;;;;;;;5.47;1.93;;;8.50;99.90;;;;;;5063281;28;20202;-90
2022/11/24 05:40:09;;;;;;;4.13;1.70;;;8.50;99.90;;;;;;5069198;28;20210;-93
2022/11/24 05:42:42;;;;;;;4.53;1.67;;;8.50;99.90;;;;;;5058798;28;20238;-91
2022/11/24 05:45:14;;;;;;;8.00;1.70;;;8.50;99.90;;;;;;5064847;28;20661;-92
2022/11/24 05:47:42;;;;;;;6.73;1.60;;;8.40;99.90;;;;;;5054887;28;20213;-91
2022/11/24 05:50:11;;;;;;;6.27;2.20;;;8.40;99.90;;;;;;5054923;28;20206;-91
2022/11/24 05:52:41;;;;;;;4.57;1.40;;;8.30;99.90;;;;;;5055967;28;20227;-92
2022/11/24 05:55:10;;;;;;;7.00;2.23;;;8.30;99.90;;;;;;5056058;28;20416;-90
2022/11/24 05:57:37;;;;;;;7.03;1.70;;;8.30;99.90;;;;;;5053960;28;20199;-91
2022/11/24 06:00:04;;;;;;;11.87;2.13;;;8.20;99.90;;;;;;5053840;28;20575;-91
2022/11/24 06:02:33;;;;;;;7.23;1.87;;;8.20;99.90;;;;;;5052880;28;20226;-90
2022/11/24 06:05:01;;;;;;;9.07;2.60;;;8.20;99.90;;;;;;5054177;28;20579;-94
2022/11/24 06:07:28;;;;;;;8.03;2.00;;;8.20;99.90;;;;;;5060258;28;20289;-95
2022/11/24 06:09:59;;;;;;;6.77;1.90;;;8.20;99.90;;;;;;5053774;28;20202;-90
2022/11/24 06:12:26;;;;;;;6.93;2.10;;;8.30;99.90;;;;;;5058758;28;20209;-93
2022/11/24 06:14:55;;;;;;;7.93;1.90;;;8.30;99.90;;;;;;5067001;28;20206;-89
2022/11/24 06:17:23;;;;;;;9.87;2.80;;;8.30;99.90;;;;;;5053477;28;20440;-91
2022/11/24 06:19:52;;;;;;;7.43;2.47;;;8.20;99.90;;;;;;5053785;28;20206;-90
2022/11/24 06:22:19;;;;;;;9.43;2.47;;;8.20;99.90;;;;;;5053543;28;20251;-89
2022/11/24 06:24:46;;;;;;;12.23;2.63;;;8.10;99.90;;;;;;5055127;28;20209;-91
2022/11/24 06:27:20;;;;;;;9.80;2.70;;;8.10;99.90;;;;;;5054014;28;20202;-89
2022/11/24 06:29:53;;;;;;;13.47;3.07;;;8.10;99.90;;;;;;5056073;28;20206;-93
2022/11/24 06:32:20;;;;;;;14.23;2.73;;;8.10;99.90;;;;;;5056149;28;20206;-96
2022/11/24 06:34:53;;;;;;;9.80;2.50;;;8.00;99.90;;;;;;5056976;28;20215;-92
2022/11/24 06:37:22;;;;;;;13.67;2.90;;;8.00;99.90;;;;;;5055472;28;20561;-90
2022/11/24 06:39:49;;;;;;;16.47;3.50;;;8.00;99.90;;;;;;5053664;28;20217;-93
2022/11/24 06:42:18;;;;;;;12.77;3.37;;;7.90;99.90;;;;;;5061052;28;20241;-93
2022/11/24 06:44:50;;;;;;;17.80;4.05;;;8.00;99.90;;;;;;5059458;28;20441;-89
2022/11/24 06:47:17;;;;;;;17.00;4.13;;;7.90;99.90;;;;;;5060600;28;20301;-90
2022/11/24 06:49:45;;;;;;;11.90;3.03;;;7.90;99.90;;;;;;5058388;28;20221;-89
2022/11/24 06:52:12;;;;;;;13.43;3.43;;;8.00;99.90;;;;;;5050294;28;20195;-89
2022/11/24 06:54:39;;;;;;;14.47;3.60;;;7.90;99.90;;;;;;5052028;28;20217;-88
2022/11/24 06:57:06;;;;;;;13.03;3.47;;;8.00;99.90;;;;;;5054944;28;20206;-89
2022/11/24 06:59:34;;;;;;;16.10;3.57;;;8.10;99.90;;;;;;5055386;28;20205;-90
2022/11/24 07:02:02;;;;;;;14.80;3.67;;;7.90;99.90;;;;;;5053523;28;20229;-88
2022/11/24 07:04:29;;;;;;;15.77;3.20;;;8.00;99.90;;;;;;5053743;28;20214;-92
2022/11/24 07:06:57;;;;;;;11.77;2.97;;;7.90;99.90;;;;;;5053888;28;20203;-89
2022/11/24 07:09:29;;;;;;;13.60;3.33;;;7.80;99.90;;;;;;5056634;28;20206;-92
2022/11/24 07:11:56;;;;;;;11.47;3.03;;;7.90;99.90;;;;;;5059446;28;20213;-91
2022/11/24 07:14:23;;;;;;;15.82;4.40;;;7.90;99.90;;;;;;5057724;28;20421;-93
2022/11/24 07:16:50;;;;;;;14.87;3.33;;;7.90;99.90;;;;;;5059396;28;20213;-91
2022/11/24 07:19:18;;;;;;;15.23;3.40;;;7.90;99.90;;;;;;5052125;28;20217;-90
2022/11/24 07:21:46;;;;;;;15.43;3.90;;;7.90;99.90;;;;;;5053095;28;20237;-90
2022/11/24 07:24:14;;;;;;;16.00;2.90;;;8.00;99.90;;;;;;5053209;28;20214;-91
2022/11/24 07:26:41;;;;;;;18.57;3.83;;;8.00;99.90;;;;;;5053508;28;20206;-90
2022/11/24 07:29:09;;;;;;;16.83;3.77;;;8.10;99.90;;;;;;5052757;28;20203;-91
2022/11/24 07:31:36;;;;;;;15.40;4.07;;;8.10;99.90;;;;;;5053464;28;20555;-89
2022/11/24 07:34:06;;;;;;;14.17;4.00;;;8.10;99.90;;;;;;5054242;28;20202;-90
2022/11/24 07:36:35;;;;;;;12.97;3.20;;;8.00;99.90;;;;;;5054384;28;20213;-89
2022/11/24 07:39:02;;;;;;;8.20;3.07;;;7.90;99.90;;;;;;5056310;28;20199;-92
2022/11/24 07:41:30;;;;;;;11.83;3.00;;;7.80;99.90;;;;;;5057596;28;20578;-93
2022/11/24 07:43:58;;;;;;;10.47;2.70;;;7.80;99.90;;;;;;5054717;28;20574;-91
2022/11/24 07:46:25;;;;;;;19.00;3.10;;;7.80;99.90;;;;;;5055780;28;20223;-90
2022/11/24 07:48:52;;;;;;;16.37;3.37;;;7.80;99.90;;;;;;5061138;28;20210;-90
2022/11/24 07:51:20;;;;;;;13.70;2.37;;;7.90;99.90;;;;;;5058543;28;20631;-92
2022/11/24 07:53:48;;;;;;;10.17;2.47;;;7.90;99.90;;;;;;5078222;28;20717;-92
2022/11/24 07:56:16;;;;;;;10.20;2.40;;;7.90;99.90;;;;;;5064820;28;20209;-91
2022/11/24 07:58:46;;;;;;;13.13;2.90;;;7.90;99.90;;;;;;5060737;28;20206;-91
2022/11/24 08:01:18;;;;;;;10.53;2.30;;;7.90;99.90;;;;;;5070306;28;20209;-89
2022/11/24 08:03:48;;;;;;;12.20;2.27;;;8.00;99.90;;;;;;5063082;28;20210;-88
2022/11/24 08:06:21;;;;;;;5.73;2.13;;;7.90;99.90;;;;;;5059479;28;20294;-91
2022/11/24 08:08:51;;;;;;;10.73;2.63;;;8.00;99.90;;;;;;5054212;28;20206;-91
2022/11/24 08:11:20;;;;;;;13.18;4.45;;;8.00;99.90;;;;;;5044981;28;20439;-91
2022/11/24 08:13:54;;;;;;;8.80;2.40;;;8.10;99.90;;;;;;5058544;28;20202;-91
2022/11/24 08:16:21;;;;;;;12.57;2.50;;;8.10;99.90;;;;;;5049220;28;20202;-93
2022/11/24 08:18:50;;;;;;;6.00;2.03;;;8.10;99.90;;;;;;5050514;28;20207;-89
2022/11/24 08:21:19;;;;;;;5.87;1.93;;;8.10;99.90;;;;;;5054926;28;20213;-91
2022/11/24 08:23:47;;;;;;;7.37;1.77;;;8.10;99.90;;;;;;5043493;28;20223;-88
2022/11/24 08:26:30;;;;;;;10.97;2.27;;;8.10;99.90;;;;;;5058310;28;20220;-92
2022/11/24 08:28:58;;;;;;;7.63;2.37;;;8.10;99.90;;;;;;5061330;28;20210;-91
2022/11/24 08:31:31;;;;;;;12.53;2.30;;;8.20;99.90;;;;;;5063931;28;20210;-92
2022/11/24 08:34:05;;;;;;;8.67;2.10;;;8.20;99.90;;;;;;5060699;28;20299;-91
2022/11/24 08:36:34;;;;;;;7.77;2.40;;;8.30;99.90;;;;;;5067826;28;20766;-91
2022/11/24 08:39:04;;;;;;;5.57;2.00;;;8.40;99.90;;;;;;5066379;28;20208;-92
2022/11/24 08:41:32;;;;;;;6.33;2.37;;;8.40;99.90;;;;;;5056432;28;20214;-94
2022/11/24 08:43:59;;;;;;;6.77;2.50;;;8.50;99.90;;;;;;5055885;28;20240;-94
2022/11/24 08:46:26;;;;;;;9.83;2.20;;;8.50;99.90;;;;;;5061497;28;20199;-93
2022/11/24 08:48:54;;;;;;;13.00;2.47;;;8.50;99.90;;;;;;5058985;28;20210;-93
2022/11/24 08:51:25;;;;;;;10.17;2.50;;;8.60;99.90;;;;;;5056335;28;20662;-91
2022/11/24 08:53:56;;;;;;;6.17;1.93;;;8.60;99.90;;;;;;5062687;28;20226;-92
2022/11/24 08:59:13;;;;;;;12.83;1.93;;;8.70;99.90;;;;;;5063726;28;20237;-92
2022/11/24 09:01:40;;;;;;;11.17;2.53;;;8.70;99.90;;;;;;5064822;28;20228;-91
2022/11/24 09:04:07;;;;;;;6.80;2.17;;;8.70;99.90;;;;;;5042597;28;20226;-93
2022/11/24 09:06:37;;;;;;;10.30;2.27;;;8.80;99.90;;;;;;5060998;28;20199;-91
2022/11/24 09:09:15;;;;;;;8.17;2.17;;;8.80;99.90;;;;;;5063214;28;20206;-91
2022/11/24 09:11:43;;;;;;;8.73;2.43;;;8.80;99.90;;;;;;5061262;28;20218;-93
2022/11/24 09:14:15;;;;;;;5.17;1.90;;;8.80;99.90;;;;;;5062634;28;20765;-92
2022/11/24 09:16:42;;;;;;;8.60;2.30;;;8.90;99.90;;;;;;5066261;28;20277;-91
2022/11/24 09:19:10;;;;;;;12.80;5.27;;;9.00;99.90;;;;;;5064958;28;20202;-92
2022/11/24 09:21:37;;;;;;;9.13;2.30;;;8.90;99.90;;;;;;5062133;28;20297;-93
2022/11/24 09:24:06;;;;;;;6.33;2.17;;;9.00;99.90;;;;;;5057472;28;20218;-94
2022/11/24 09:26:35;;;;;;;8.17;2.40;;;9.00;99.90;;;;;;5061755;28;20780;-93
2022/11/24 09:29:03;;;;;;;8.60;2.13;;;9.10;99.90;;;;;;5056770;28;20194;-94
2022/11/24 09:31:34;;;;;;;12.80;2.40;;;9.20;99.90;;;;;;5057373;28;20206;-93
2022/11/24 09:34:01;;;;;;;11.57;2.93;;;9.10;99.90;;;;;;5055452;28;20207;-94
2022/11/24 09:36:28;;;;;;;11.93;3.35;;;9.20;99.90;;;;;;5054598;28;20432;-93
2022/11/24 09:38:55;;;;;;;7.67;2.53;;;9.30;99.90;;;;;;5055800;28;20560;-93
2022/11/24 09:41:54;;;;;;;9.43;2.60;;;9.40;99.90;;;;;;5055376;28;20559;-94
2022/11/24 09:44:56;;;;;;;13.87;3.57;;;9.40;99.90;;;;;;5060329;28;20225;-94
2022/11/24 09:47:38;;;;;;;8.30;2.30;;;9.50;99.90;;;;;;5068897;28;20212;-94
2022/11/24 09:50:10;;;;;;;16.20;2.33;;;9.50;99.90;;;;;;5058378;28;20210;-92
2022/11/24 09:52:42;;;;;;;9.03;3.00;;;9.50;99.90;;;;;;5058655;28;20218;-93
2022/11/24 09:55:25;;;;;;;9.00;2.90;;;9.60;99.90;;;;;;5069250;28;20202;-94
2022/11/24 09:57:59;;;;;;;10.17;2.93;;;9.60;99.90;;;;;;5055278;28;20198;-95
2022/11/24 10:00:28;;;;;;;14.83;3.10;;;9.60;99.90;;;;;;5038647;28;20190;-93
2022/11/24 10:03:01;;;;;;;9.37;2.80;;;9.70;99.90;;;;;;5054609;28;20585;-94
2022/11/24 10:05:36;;;;;;;14.00;3.10;;;9.70;99.90;;;;;;5041497;28;20208;-94
2022/11/24 10:08:19;;;;;;;9.47;2.77;;;9.70;99.90;;;;;;5054549;28;20212;-94
2022/11/24 10:10:55;;;;;;;9.13;2.73;;;9.80;99.90;;;;;;5057241;28;20198;-93
2022/11/24 10:13:48;;;;;;;16.80;2.70;;;9.80;99.90;;;;;;5058976;28;20210;-93
2022/11/24 10:16:25;;;;;;;11.23;2.93;;;9.90;99.90;;;;;;5047036;28;20210;-90
2022/11/24 10:19:06;;;;;;;9.93;2.83;;;10.00;99.90;;;;;;5056041;28;20213;-93
2022/11/24 10:21:50;;;;;;;11.73;3.10;;;10.00;99.90;;;;;;5054754;28;20213;-93
2022/11/24 10:24:50;;;;;;;8.97;2.37;;;10.00;99.90;;;;;;5053993;28;20241;-91
2022/11/24 10:27:20;;;;;;;8.70;2.73;;;10.00;99.90;;;;;;5030063;28;20636;-92
2022/11/24 10:29:53;;;;;;;10.87;2.73;;;10.00;99.90;;;;;;5054558;28;20202;-91
2022/11/24 10:32:26;;;;;;;13.93;3.00;;;10.00;99.90;;;;;;5055393;28;20602;-91
2022/11/24 10:34:59;;;;;;;13.20;2.87;;;10.20;99.90;;;;;;5054856;28;20569;-91
2022/11/24 10:37:33;;;;;;;8.03;2.97;;;10.30;99.90;;;;;;5053284;28;20214;-91
2022/11/24 10:40:12;;;;;;;14.23;3.30;;;10.30;99.90;;;;;;5054452;28;20687;-90
2022/11/24 10:42:40;;;;;;;14.83;3.33;;;10.20;99.90;;;;;;5057612;28;20213;-90
2022/11/24 10:45:11;;;;;;;11.90;3.00;;;10.30;99.90;;;;;;5047962;28;20208;-92
2022/11/24 10:47:39;;;;;;;11.67;2.80;;;10.30;99.90;;;;;;5048821;28;20218;-91
2022/11/24 10:50:18;;;;;;;8.87;2.40;;;10.30;99.90;;;;;;5059075;28;20206;-90
2022/11/24 10:52:50;;;;;;;13.90;2.57;;;10.40;99.90;;;;;;5060903;28;20221;-90
2022/11/24 10:55:17;;;;;;;13.13;2.63;;;10.40;99.90;;;;;;5064078;28;20203;-90
2022/11/24 10:57:45;;;;;;;14.03;2.70;;;10.40;99.90;;;;;;5057800;28;20250;-94
2022/11/24 11:00:31;;;;;;;10.60;2.67;;;10.50;99.90;;;;;;5047943;28;20214;-92
2022/11/24 11:03:15;;;;;;;7.10;2.40;;;10.50;99.90;;;;;;5054877;28;20682;-90
2022/11/24 11:05:47;;;;;;;8.17;1.97;;;10.50;99.90;;;;;;5058730;28;20205;-90
2022/11/24 11:08:24;;;;;;;11.33;2.43;;;10.60;99.90;;;;;;5049439;28;20216;-89
2022/11/24 11:11:17;;;;;;;10.10;2.97;;;10.70;99.90;;;;;;5056201;28;20222;-91
2022/11/24 11:13:54;;;;;;;9.93;3.07;;;10.80;99.90;;;;;;5056708;28;20207;-92
2022/11/24 11:16:33;;;;;;;10.00;2.33;;;10.80;99.90;;;;;;5063551;28;20229;-92
2022/11/24 11:19:02;;;;;;;10.07;2.60;;;10.70;99.90;;;;;;5049519;28;20208;-91
2022/11/24 11:21:36;;;;;;;12.23;2.47;;;10.70;99.90;;;;;;5054542;28;20220;-94
2022/11/24 11:24:12;;;;;;;9.00;2.53;;;10.80;99.90;;;;;;5060669;28;20230;-91
2022/11/24 11:26:40;;;;;;;11.27;2.60;;;10.80;99.90;;;;;;5063056;28;20442;-91
2022/11/24 11:29:19;;;;;;;15.87;2.80;;;10.90;99.90;;;;;;5061626;28;20249;-91
2022/11/24 11:32:03;;;;;;;11.73;2.83;;;11.00;99.90;;;;;;5064636;28;20198;-90
2022/11/24 11:34:35;;;;;;;12.83;2.70;;;11.00;99.90;;;;;;5064784;28;20194;-93
2022/11/24 11:37:04;;;;;;;7.67;2.53;;;11.00;99.90;;;;;;5070877;28;20218;-95
2022/11/24 11:39:35;;;;;;;9.33;2.47;;;11.00;99.90;;;;;;5072477;28;20188;-92
2022/11/24 11:42:19;;;;;;;10.57;2.40;;;11.00;99.90;;;;;;5050921;28;20204;-92
2022/11/24 11:44:51;;;;;;;9.50;2.70;;;11.10;99.90;;;;;;5061479;28;20227;-91
2022/11/24 11:47:29;;;;;;;12.63;2.80;;;11.20;99.90;;;;;;5058541;28;20230;-91
2022/11/24 11:49:57;;;;;;;10.60;2.67;;;11.20;99.90;;;;;;5059176;28;20227;-91
2022/11/24 11:52:48;;;;;;;16.03;2.70;;;11.20;99.90;;;;;;5057867;28;20227;-91
2022/11/24 11:55:33;;;;;;;14.68;3.58;;;11.30;99.90;;;;;;5060726;28;20485;-89
2022/11/24 11:58:26;;;;;;;11.97;3.10;;;11.40;99.90;;;;;;5064877;28;20213;-89
2022/11/24 12:01:12;;;;;;;10.10;2.50;;;11.40;99.90;;;;;;5068201;28;20277;-94
2022/11/24 12:03:57;;;;;;;11.70;2.87;;;11.40;99.90;;;;;;5062538;28;20237;-89
2022/11/24 12:06:43;;;;;;;14.63;2.70;;;11.40;99.90;;;;;;5069372;28;20213;-90
2022/11/24 12:09:24;;;;;;;11.50;2.40;;;11.40;99.90;;;;;;5070874;28;20206;-90
2022/11/24 12:12:16;;;;;;;19.23;3.40;;;11.40;99.90;;;;;;5065987;28;20208;-93
2022/11/24 12:14:52;;;;;;;15.83;3.37;;;11.40;99.90;;;;;;5056152;28;20210;-89
2022/11/24 12:17:30;;;;;;;11.17;3.00;;;11.30;99.90;;;;;;5060725;28;20208;-90
2022/11/24 12:20:13;;;;;;;14.40;2.90;;;11.40;99.90;;;;;;5058789;28;20437;-90
2022/11/24 12:22:46;;;;;;;11.60;3.47;;;11.50;99.90;;;;;;5065002;28;20460;-89
2022/11/24 12:25:25;;;;;;;15.20;2.90;;;11.60;99.90;;;;;;5041137;28;20252;-89
2022/11/24 12:28:12;;;;;;;13.47;3.63;;;11.50;99.90;;;;;;5058916;28;20213;-92
2022/11/24 12:30:47;;;;;;;8.87;2.53;;;11.50;99.90;;;;;;5058738;28;20207;-92
2022/11/24 12:33:31;;;;;;;11.20;2.77;;;11.50;99.90;;;;;;5058306;28;20216;-92
2022/11/24 12:36:09;;;;;;;15.13;3.27;;;11.50;99.90;;;;;;5059008;28;20203;-90
2022/11/24 12:38:54;;;;;;;11.27;3.23;;;11.50;99.90;;;;;;5056992;28;20229;-89
2022/11/24 12:41:49;;;;;;;13.43;3.27;;;11.50;99.90;;;;;;5060199;28;20212;-90
2022/11/24 12:44:40;;;;;;;9.40;2.90;;;11.60;99.90;;;;;;5052130;28;20240;-91
2022/11/24 12:47:16;;;;;;;15.97;3.53;;;11.60;99.90;;;;;;5062231;28;20208;-90
2022/11/24 12:49:56;;;;;;;20.30;3.77;;;11.70;99.90;;;;;;5061824;28;20216;-90
2022/11/24 12:52:26;;;;;;;16.07;4.23;;;11.70;99.90;;;;;;5060949;28;20232;-90
2022/11/24 12:54:55;;;;;;;12.50;3.40;;;11.70;99.90;;;;;;5059829;28;20244;-91
2022/11/24 12:57:27;;;;;;;12.00;3.33;;;11.70;99.90;;;;;;5062890;28;20209;-90
2022/11/24 13:00:01;;;;;;;12.10;3.17;;;11.70;99.90;;;;;;5059305;28;20209;-89
2022/11/24 13:02:43;;;;;;;13.17;3.03;;;11.80;99.90;;;;;;5059286;28;20201;-91
2022/11/24 13:05:20;;;;;;;8.47;2.80;;;11.80;99.90;;;;;;5060809;28;20225;-88
2022/11/24 13:07:49;;;;;;;9.30;3.03;;;11.80;99.90;;;;;;5055643;28;20204;-90
2022/11/24 13:10:36;;;;;;;10.43;3.47;;;11.80;99.90;;;;;;5057532;28;20202;-95
2022/11/24 13:13:04;;;;;;;10.50;3.20;;;11.80;99.90;;;;;;5071280;28;20196;-95
2022/11/24 13:16:16;;;;;;;14.15;2.90;;;11.90;99.90;;;;;;5058163;28;20389;-92